Time;durP1;ratioP1;P1;durP2;ratioP2;P2;SDS_P1;SDS_P2;PMS_P1;PMS_P2;Temp;Humidity;BMP_temperature;BMP_pressure;BME280_temperature;BME280_humidity;BME280_pressure;Samples;Min_cycle;Max_cycle;Signal;HPM_P1;HPM_P2
2022/01/30 00:01:26;;;;;;;0.28;0.28;;;;;;;;;;5070498;28;20040;-48
2022/01/30 00:03:52;;;;;;;0.45;0.20;;;;;;;;;;5071457;28;20028;-50
2022/01/30 00:06:18;;;;;;;0.30;0.30;;;;;;;;;;5052427;28;20024;-48
2022/01/30 00:08:44;;;;;;;0.30;0.30;;;;;;;;;;5071160;28;20035;-49
2022/01/30 00:11:16;;;;;;;0.60;0.30;;;;;;;;;;5070217;28;20512;-47
2022/01/30 00:13:42;;;;;;;1.33;0.57;;;;;;;;;;5071381;28;20032;-48
2022/01/30 00:16:10;;;;;;;1.08;0.50;;;;;;;;;;5071138;28;20028;-52
2022/01/30 00:21:22;;;;;;;0.90;0.50;;;;;;;;;;5070856;28;20068;-47
2022/01/30 00:23:56;;;;;;;0.30;0.30;;;;;;;;;;5072458;28;20039;-47
2022/01/30 00:26:28;;;;;;;0.32;0.22;;;;;;;;;;5074779;28;20085;-50
2022/01/30 00:28:54;;;;;;;0.60;0.40;;;;;;;;;;5073508;28;20027;-48
2022/01/30 00:31:21;;;;;;;0.35;0.20;;;;;;;;;;5071866;28;20476;-48
2022/01/30 00:33:47;;;;;;;0.20;0.20;;;;;;;;;;5053883;28;20033;-48
2022/01/30 00:36:13;;;;;;;0.30;0.20;;;;;;;;;;5070666;28;20050;-52
2022/01/30 00:38:40;;;;;;;0.20;0.20;;;;;;;;;;5070741;28;20497;-48
2022/01/30 00:41:06;;;;;;;0.73;0.20;;;;;;;;;;5074712;28;20035;-49
2022/01/30 00:43:32;;;;;;;0.40;0.20;;;;;;;;;;5073434;28;20103;-52
2022/01/30 00:45:58;;;;;;;0.73;0.10;;;;;;;;;;5074340;28;20032;-48
2022/01/30 00:48:24;;;;;;;0.30;0.30;;;;;;;;;;5073884;28;20021;-51
2022/01/30 00:50:50;;;;;;;0.13;0.13;;;;;;;;;;5074453;28;20040;-48
2022/01/30 00:53:16;;;;;;;0.70;0.35;;;;;;;;;;5069771;28;20021;-48
2022/01/30 00:55:42;;;;;;;0.47;0.30;;;;;;;;;;5059737;28;20017;-48
2022/01/30 00:58:08;;;;;;;0.20;0.20;;;;;;;;;;5066051;28;20025;-48
2022/01/30 01:00:34;;;;;;;0.45;0.28;;;;;;;;;;5059387;28;20025;-48
2022/01/30 01:03:01;;;;;;;2.03;0.40;;;;;;;;;;5071696;28;20039;-48
2022/01/30 01:05:29;;;;;;;0.20;0.20;;;;;;;;;;5060022;28;20029;-48
2022/01/30 01:07:57;;;;;;;0.30;0.30;;;;;;;;;;5068219;28;20025;-50
2022/01/30 01:25:53;;;;;;;0.30;0.30;;;;;;;;;;5064823;28;20029;-47
2022/01/30 01:28:19;;;;;;;0.77;0.35;;;;;;;;;;5066407;28;20493;-48
2022/01/30 01:30:45;;;;;;;0.20;0.20;;;;;;;;;;5064937;28;20027;-48
2022/01/30 01:33:12;;;;;;;1.02;0.30;;;;;;;;;;5073877;28;20016;-54
2022/01/30 01:35:38;;;;;;;0.35;0.30;;;;;;;;;;5072139;28;20032;-47
2022/01/30 01:38:10;;;;;;;0.20;0.20;;;;;;;;;;5074089;28;20099;-48
2022/01/30 01:40:36;;;;;;;0.40;0.20;;;;;;;;;;5072988;28;20066;-48
2022/01/30 01:43:02;;;;;;;0.68;0.30;;;;;;;;;;5073553;28;20036;-48
2022/01/30 01:45:34;;;;;;;0.35;0.22;;;;;;;;;;5072962;28;20024;-47
2022/01/30 01:48:03;;;;;;;;;;;;;;;;;;5073860;28;20040;-47
2022/01/30 01:50:39;;;;;;;0.85;0.28;;;;;;;;;;5073009;28;19920;-48
2022/01/30 01:53:09;;;;;;;0.32;0.25;;;;;;;;;;5073630;28;20016;-47
2022/01/30 01:55:35;;;;;;;0.32;0.20;;;;;;;;;;5072847;28;20036;-47
2022/01/30 01:58:01;;;;;;;0.30;0.20;;;;;;;;;;5073576;28;20020;-48
2022/01/30 02:00:27;;;;;;;0.28;0.28;;;;;;;;;;5071782;28;20037;-48
2022/01/30 02:02:54;;;;;;;0.47;0.40;;;;;;;;;;5055458;28;20170;-47
2022/01/30 02:05:23;;;;;;;0.55;0.22;;;;;;;;;;5072192;28;20478;-47
2022/01/30 02:10:38;;;;;;;0.57;0.40;;;;;;;;;;5066755;28;20050;-47
2022/01/30 02:13:34;;;;;;;0.30;0.30;;;;;;;;;;5073456;28;20025;-47
2022/01/30 02:24:18;;;;;;;0.30;0.25;;;;;;;;;;5064383;28;20040;-49
2022/01/30 02:26:47;;;;;;;0.20;0.10;;;;;;;;;;5072686;28;20025;-47
2022/01/30 02:29:13;;;;;;;0.40;0.30;;;;;;;;;;5071869;28;20028;-51
2022/01/30 02:31:41;;;;;;;0.52;0.20;;;;;;;;;;5073123;28;20032;-48
2022/01/30 02:34:07;;;;;;;0.28;0.22;;;;;;;;;;5073362;28;20027;-47
2022/01/30 02:36:33;;;;;;;0.20;0.20;;;;;;;;;;5072025;28;20052;-48
2022/01/30 02:39:00;;;;;;;0.30;0.30;;;;;;;;;;5072990;28;20078;-47
2022/01/30 02:41:26;;;;;;;0.38;0.30;;;;;;;;;;5072395;28;20033;-47
2022/01/30 02:44:32;;;;;;;0.30;0.25;;;;;;;;;;5073217;28;20450;-49
2022/01/30 02:46:48;;;;;;;0.10;0.10;;;;;;;;;;5067043;28;20036;-50
2022/01/30 02:51:49;;;;;;;0.70;0.20;;;;;;;;;;5069792;28;20044;-48
2022/01/30 02:54:15;;;;;;;0.68;0.30;;;;;;;;;;5072406;28;20023;-47
2022/01/30 02:56:42;;;;;;;0.40;0.20;;;;;;;;;;5072722;28;20035;-48
2022/01/30 02:59:08;;;;;;;0.35;0.20;;;;;;;;;;5072789;28;20441;-48
2022/01/30 03:01:34;;;;;;;0.20;0.20;;;;;;;;;;5065145;28;20029;-50
2022/01/30 03:04:00;;;;;;;0.82;0.73;;;;;;;;;;5063567;28;20044;-47
2022/01/30 03:06:26;;;;;;;0.30;0.30;;;;;;;;;;5057639;28;20025;-47
2022/01/30 03:08:53;;;;;;;0.40;0.20;;;;;;;;;;5070551;28;20078;-47
2022/01/30 03:11:19;;;;;;;0.38;0.20;;;;;;;;;;5067029;28;20033;-47
2022/01/30 03:13:45;;;;;;;0.20;0.20;;;;;;;;;;5061343;28;20095;-50
2022/01/30 03:16:11;;;;;;;0.30;0.25;;;;;;;;;;5060466;28;20032;-48
2022/01/30 03:18:37;;;;;;;0.20;0.20;;;;;;;;;;5067778;28;20039;-49
2022/01/30 03:21:04;;;;;;;0.15;0.15;;;;;;;;;;5055521;28;20036;-49
2022/01/30 03:23:30;;;;;;;0.85;0.22;;;;;;;;;;5071747;28;20111;-49
2022/01/30 03:25:59;;;;;;;0.25;0.20;;;;;;;;;;5071949;28;20099;-48
2022/01/30 03:28:25;;;;;;;0.40;0.40;;;;;;;;;;5071465;28;20027;-48
2022/01/30 03:30:56;;;;;;;0.28;0.28;;;;;;;;;;5071708;28;20036;-49
2022/01/30 03:33:22;;;;;;;0.50;0.30;;;;;;;;;;5066168;28;20347;-49
2022/01/30 03:35:48;;;;;;;0.25;0.17;;;;;;;;;;5065201;28;20020;-48
2022/01/30 03:38:19;;;;;;;0.30;0.30;;;;;;;;;;5070544;28;20041;-48
2022/01/30 03:40:45;;;;;;;0.13;0.13;;;;;;;;;;5070189;28;20029;-50
2022/01/30 03:43:11;;;;;;;1.48;0.30;;;;;;;;;;5070517;28;20024;-50
2022/01/30 03:45:38;;;;;;;0.45;0.20;;;;;;;;;;5069713;28;20108;-49
2022/01/30 03:48:04;;;;;;;0.32;0.30;;;;;;;;;;5051891;28;20036;-48
2022/01/30 03:50:30;;;;;;;0.17;0.17;;;;;;;;;;5068763;28;20060;-49
2022/01/30 03:52:56;;;;;;;0.32;0.30;;;;;;;;;;5070223;28;20105;-49
2022/01/30 03:55:23;;;;;;;0.20;0.20;;;;;;;;;;5069477;28;20024;-48
2022/01/30 03:57:49;;;;;;;0.30;0.20;;;;;;;;;;5066675;28;20021;-48
2022/01/30 04:00:15;;;;;;;0.25;0.10;;;;;;;;;;5069494;28;20042;-54
2022/01/30 04:02:42;;;;;;;0.47;0.17;;;;;;;;;;5069747;28;20036;-48
2022/01/30 04:05:08;;;;;;;0.20;0.20;;;;;;;;;;5070071;28;20024;-50
2022/01/30 04:07:34;;;;;;;0.52;0.20;;;;;;;;;;5069586;28;20091;-47
2022/01/30 04:10:00;;;;;;;1.05;0.40;;;;;;;;;;5070007;28;20032;-47
2022/01/30 04:12:26;;;;;;;1.50;0.22;;;;;;;;;;5069079;28;20574;-48
2022/01/30 04:14:52;;;;;;;0.50;0.30;;;;;;;;;;5071085;28;20091;-48
2022/01/30 04:17:22;;;;;;;0.65;0.20;;;;;;;;;;5065517;28;20037;-53
2022/01/30 04:19:48;;;;;;;0.63;0.22;;;;;;;;;;5060322;28;20380;-48
2022/01/30 04:22:14;;;;;;;0.80;0.30;;;;;;;;;;5061329;28;20033;-48
2022/01/30 04:24:40;;;;;;;0.40;0.28;;;;;;;;;;5070511;28;20128;-48
2022/01/30 04:27:07;;;;;;;0.22;0.22;;;;;;;;;;5071204;28;20027;-47
2022/01/30 04:29:33;;;;;;;0.40;0.30;;;;;;;;;;5063738;28;20083;-49
2022/01/30 04:31:59;;;;;;;0.40;0.20;;;;;;;;;;5061687;28;20104;-47
2022/01/30 04:34:27;;;;;;;0.85;0.30;;;;;;;;;;5064591;28;20060;-47
2022/01/30 04:37:01;;;;;;;1.02;0.30;;;;;;;;;;5070262;28;20434;-48
2022/01/30 04:58:48;;;;;;;1.02;0.40;;;;;;;;;;5054916;28;20040;-48
2022/01/30 05:03:57;;;;;;;0.85;0.40;;;;;;;;;;5062192;28;20044;-47
2022/01/30 05:06:33;;;;;;;1.02;0.30;;;;;;;;;;5063913;28;20110;-49
2022/01/30 05:08:59;;;;;;;2.55;0.40;;;;;;;;;;5068729;28;20122;-47
2022/01/30 05:11:25;;;;;;;3.03;0.60;;;;;;;;;;5068028;28;20025;-48
2022/01/30 05:13:52;;;;;;;0.30;0.20;;;;;;;;;;5064021;28;20032;-47
2022/01/30 05:16:20;;;;;;;1.10;0.38;;;;;;;;;;5060983;28;20417;-54
2022/01/30 05:18:46;;;;;;;1.27;0.40;;;;;;;;;;5070899;28;20070;-46
2022/01/30 05:21:12;;;;;;;1.42;0.73;;;;;;;;;;5058280;28;20028;-47
2022/01/30 05:23:38;;;;;;;1.27;0.60;;;;;;;;;;5073147;28;20029;-47
2022/01/30 05:26:07;;;;;;;1.65;0.88;;;;;;;;;;5074230;28;20108;-47
2022/01/30 05:28:33;;;;;;;0.57;0.50;;;;;;;;;;5073108;28;20096;-47
2022/01/30 05:30:59;;;;;;;0.63;0.40;;;;;;;;;;5073725;28;20477;-47
2022/01/30 05:33:26;;;;;;;1.40;0.60;;;;;;;;;;5058877;28;20064;-47
2022/01/30 05:35:52;;;;;;;0.55;0.30;;;;;;;;;;5073803;28;20033;-47
2022/01/30 05:38:18;;;;;;;1.38;0.35;;;;;;;;;;5073897;28;20102;-54
2022/01/30 05:40:45;;;;;;;0.85;0.40;;;;;;;;;;5073373;28;20055;-47
2022/01/30 05:43:11;;;;;;;1.10;0.45;;;;;;;;;;5073919;28;20107;-48
2022/01/30 05:45:41;;;;;;;0.65;0.47;;;;;;;;;;5072820;28;20016;-52
2022/01/30 05:48:15;;;;;;;2.75;1.02;;;;;;;;;;5073733;28;20060;-48
2022/01/30 05:50:42;;;;;;;0.95;0.43;;;;;;;;;;5069188;28;20414;-46
2022/01/30 05:53:08;;;;;;;1.08;0.60;;;;;;;;;;5061708;28;20119;-49
2022/01/30 05:55:34;;;;;;;0.68;0.38;;;;;;;;;;5072743;28;20028;-48
2022/01/30 05:58:00;;;;;;;1.00;0.40;;;;;;;;;;5073972;28;20444;-46
2022/01/30 06:00:26;;;;;;;2.45;0.80;;;;;;;;;;5073255;28;20063;-47
2022/01/30 06:02:52;;;;;;;0.90;0.43;;;;;;;;;;5072443;28;20036;-46
2022/01/30 06:05:21;;;;;;;1.27;0.73;;;;;;;;;;5072220;28;20028;-50
2022/01/30 06:07:57;;;;;;;0.90;0.40;;;;;;;;;;5073889;28;20013;-47
2022/01/30 06:10:27;;;;;;;2.15;0.70;;;;;;;;;;5072730;28;20370;-46
2022/01/30 06:12:53;;;;;;;2.50;1.05;;;;;;;;;;5073533;28;20028;-48
2022/01/30 06:15:19;;;;;;;1.83;0.50;;;;;;;;;;5055251;28;20431;-52
2022/01/30 06:17:45;;;;;;;2.35;0.55;;;;;;;;;;5073760;28;20416;-48
2022/01/30 06:20:11;;;;;;;2.00;0.50;;;;;;;;;;5073362;28;20143;-47
2022/01/30 06:22:38;;;;;;;1.80;0.60;;;;;;;;;;5072028;28;20090;-47
2022/01/30 06:25:04;;;;;;;1.55;0.60;;;;;;;;;;5073194;28;20100;-49
2022/01/30 06:27:30;;;;;;;0.50;0.40;;;;;;;;;;5072616;28;20377;-46
2022/01/30 06:29:56;;;;;;;1.70;0.70;;;;;;;;;;5073500;28;20484;-48
2022/01/30 06:32:22;;;;;;;1.40;0.63;;;;;;;;;;5072362;28;20420;-50
2022/01/30 06:34:48;;;;;;;2.63;0.85;;;;;;;;;;5072768;28;20469;-46
2022/01/30 06:37:14;;;;;;;1.13;0.50;;;;;;;;;;5072783;28;20472;-46
2022/01/30 06:39:40;;;;;;;1.98;0.80;;;;;;;;;;5072228;28;20063;-50
2022/01/30 06:42:07;;;;;;;2.08;0.60;;;;;;;;;;5073038;28;20143;-47
2022/01/30 06:44:33;;;;;;;1.45;0.85;;;;;;;;;;5072070;28;20477;-47
2022/01/30 06:46:59;;;;;;;1.77;0.90;;;;;;;;;;5072896;28;20017;-48
2022/01/30 06:49:25;;;;;;;3.30;1.10;;;;;;;;;;5071707;28;20035;-48
2022/01/30 06:51:51;;;;;;;1.73;0.50;;;;;;;;;;5063847;28;20029;-49
2022/01/30 06:54:17;;;;;;;0.88;0.50;;;;;;;;;;5065873;28;20043;-48
2022/01/30 06:56:43;;;;;;;2.28;0.70;;;;;;;;;;5072094;28;20029;-51
2022/01/30 06:59:09;;;;;;;2.45;0.73;;;;;;;;;;5056748;28;20042;-51
2022/01/30 07:01:35;;;;;;;2.13;1.17;;;;;;;;;;5065155;28;20029;-52
2022/01/30 07:04:01;;;;;;;1.23;0.55;;;;;;;;;;5062261;28;20032;-48
2022/01/30 07:06:27;;;;;;;1.30;0.50;;;;;;;;;;5060981;28;20021;-49
2022/01/30 07:08:53;;;;;;;3.45;1.70;;;;;;;;;;5070525;28;20017;-48
2022/01/30 07:11:18;;;;;;;1.60;0.55;;;;;;;;;;5068236;28;20087;-47
2022/01/30 07:13:45;;;;;;;1.98;0.60;;;;;;;;;;5060905;28;20449;-48
2022/01/30 07:16:11;;;;;;;1.75;0.43;;;;;;;;;;5060548;28;20032;-47
2022/01/30 07:18:37;;;;;;;2.42;0.73;;;;;;;;;;5066881;28;20025;-52
2022/01/30 07:21:04;;;;;;;2.00;0.70;;;;;;;;;;5055522;28;20044;-50
2022/01/30 07:23:30;;;;;;;1.30;0.60;;;;;;;;;;5070082;28;20033;-47
2022/01/30 07:25:56;;;;;;;1.27;0.50;;;;;;;;;;5063294;28;20104;-48
2022/01/30 07:28:22;;;;;;;1.05;0.50;;;;;;;;;;5066859;28;20465;-54
2022/01/30 07:30:48;;;;;;;2.88;1.00;;;;;;;;;;5062826;28;20094;-47
2022/01/30 07:33:14;;;;;;;3.22;0.70;;;;;;;;;;5062173;28;20458;-50
2022/01/30 07:35:41;;;;;;;1.25;0.43;;;;;;;;;;5062687;28;20025;-49
2022/01/30 07:38:07;;;;;;;2.45;0.90;;;;;;;;;;5067977;28;20040;-52
2022/01/30 07:40:34;;;;;;;3.90;0.70;;;;;;;;;;5070772;28;20031;-47
2022/01/30 07:43:00;;;;;;;1.83;0.65;;;;;;;;;;5060248;28;20033;-49
2022/01/30 07:45:26;;;;;;;2.05;0.60;;;;;;;;;;5070808;28;20040;-49
2022/01/30 07:47:52;;;;;;;2.90;0.85;;;;;;;;;;5071316;28;20029;-49
2022/01/30 07:50:19;;;;;;;1.92;0.73;;;;;;;;;;5071532;28;20082;-48
2022/01/30 07:52:45;;;;;;;2.17;0.70;;;;;;;;;;5070043;28;20656;-48
2022/01/30 07:55:11;;;;;;;1.42;0.60;;;;;;;;;;5059956;28;20021;-48
2022/01/30 07:57:37;;;;;;;2.42;0.60;;;;;;;;;;5070645;28;20103;-48
2022/01/30 08:00:07;;;;;;;3.17;0.80;;;;;;;;;;5070959;28;20024;-50
2022/01/30 08:02:33;;;;;;;1.55;0.70;;;;;;;;;;5049980;28;20035;-50
2022/01/30 08:04:59;;;;;;;3.55;1.13;;;;;;;;;;5060276;28;20082;-49
2022/01/30 08:07:26;;;;;;;1.83;1.02;;;;;;;;;;5063137;28;20036;-50
2022/01/30 08:09:52;;;;;;;2.88;0.85;;;;;;;;;;5061367;28;20171;-50
2022/01/30 08:12:19;;;;;;;3.90;1.23;;;;;;;;;;5062067;28;20373;-52
2022/01/30 08:14:45;;;;;;;4.97;1.60;;;;;;;;;;5058970;28;20104;-50
2022/01/30 08:17:18;;;;;;;3.47;1.40;;;;;;;;;;5064731;28;20027;-48
2022/01/30 08:19:46;;;;;;;5.13;1.25;;;;;;;;;;5068642;28;20029;-47
2022/01/30 08:22:12;;;;;;;4.65;0.93;;;;;;;;;;5071084;28;20119;-47
2022/01/30 08:24:38;;;;;;;3.60;1.70;;;;;;;;;;5070359;28;20021;-47
2022/01/30 08:27:05;;;;;;;3.72;1.17;;;;;;;;;;5069239;28;20539;-47
2022/01/30 08:29:31;;;;;;;3.95;1.20;;;;;;;;;;5069767;28;20107;-47
2022/01/30 08:31:58;;;;;;;5.32;1.50;;;;;;;;;;5067007;28;20025;-46
2022/01/30 08:34:24;;;;;;;4.13;1.25;;;;;;;;;;5059949;28;20017;-53
2022/01/30 08:36:50;;;;;;;3.03;1.02;;;;;;;;;;5064723;28;20094;-48
2022/01/30 08:39:16;;;;;;;3.05;1.10;;;;;;;;;;5060328;28;20420;-51
2022/01/30 08:41:42;;;;;;;4.47;1.40;;;;;;;;;;5031583;28;20068;-50
2022/01/30 08:44:08;;;;;;;3.05;1.10;;;;;;;;;;5062201;28;20032;-48
2022/01/30 08:46:34;;;;;;;3.53;1.05;;;;;;;;;;5064433;28;20032;-47
2022/01/30 08:49:00;;;;;;;7.72;2.10;;;;;;;;;;5065976;28;20116;-48
2022/01/30 08:51:26;;;;;;;3.25;0.90;;;;;;;;;;5063695;28;20103;-48
2022/01/30 08:53:52;;;;;;;3.72;1.20;;;;;;;;;;5065696;28;20461;-49
2022/01/30 08:56:21;;;;;;;6.50;1.10;;;;;;;;;;5063982;28;20016;-49
2022/01/30 08:58:47;;;;;;;4.20;0.98;;;;;;;;;;5061572;28;20086;-51
2022/01/30 09:01:13;;;;;;;3.92;1.10;;;;;;;;;;5065085;28;20027;-49
2022/01/30 09:03:40;;;;;;;3.78;1.25;;;;;;;;;;5066738;28;20028;-48
2022/01/30 09:06:06;;;;;;;3.70;1.17;;;;;;;;;;5070059;28;20077;-47
2022/01/30 09:08:32;;;;;;;2.80;1.02;;;;;;;;;;5070836;28;20024;-50
2022/01/30 09:10:58;;;;;;;5.15;1.27;;;;;;;;;;5068283;28;20031;-47
2022/01/30 09:13:24;;;;;;;3.63;1.30;;;;;;;;;;5064429;28;20028;-54
2022/01/30 09:15:56;;;;;;;3.38;0.82;;;;;;;;;;5065109;28;20095;-47
2022/01/30 09:18:22;;;;;;;4.40;1.20;;;;;;;;;;5064015;28;20029;-56
2022/01/30 09:20:49;;;;;;;5.05;1.33;;;;;;;;;;5063807;28;20024;-48
2022/01/30 09:23:15;;;;;;;3.75;1.00;;;;;;;;;;5065649;28;20021;-48
2022/01/30 09:25:41;;;;;;;3.08;1.05;;;;;;;;;;5063935;28;20139;-47
2022/01/30 09:28:07;;;;;;;3.40;1.17;;;;;;;;;;5065280;28;20055;-47
2022/01/30 09:30:33;;;;;;;4.85;1.20;;;;;;;;;;5067002;28;20090;-47
2022/01/30 09:32:59;;;;;;;2.50;1.17;;;;;;;;;;5065401;28;20032;-51
2022/01/30 09:35:25;;;;;;;3.70;1.20;;;;;;;;;;5063107;28;20032;-56
2022/01/30 09:37:51;;;;;;;4.40;0.93;;;;;;;;;;5064949;28;20052;-50
2022/01/30 09:40:18;;;;;;;4.32;1.20;;;;;;;;;;5060794;28;20043;-48
2022/01/30 09:42:45;;;;;;;3.25;1.17;;;;;;;;;;5063877;28;20596;-47
2022/01/30 09:45:12;;;;;;;3.28;1.17;;;;;;;;;;5062610;28;20538;-47
2022/01/30 09:47:40;;;;;;;6.78;1.75;;;;;;;;;;5064108;28;20020;-46
2022/01/30 09:50:07;;;;;;;4.05;1.33;;;;;;;;;;5064455;28;20392;-48
2022/01/30 09:52:33;;;;;;;2.60;0.85;;;;;;;;;;5064365;28;20033;-48
2022/01/30 09:54:59;;;;;;;3.03;0.90;;;;;;;;;;5064527;28;20025;-50
2022/01/30 09:57:25;;;;;;;3.40;1.33;;;;;;;;;;5066071;28;20111;-54
2022/01/30 09:59:51;;;;;;;2.63;1.20;;;;;;;;;;5064480;28;20078;-48
2022/01/30 10:02:18;;;;;;;3.90;1.20;;;;;;;;;;5067918;28;20485;-47
2022/01/30 10:04:44;;;;;;;3.65;1.30;;;;;;;;;;5067203;28;20070;-46
2022/01/30 10:07:14;;;;;;;4.50;1.40;;;;;;;;;;5064251;28;20358;-47
2022/01/30 10:09:46;;;;;;;3.72;1.55;;;;;;;;;;5062201;28;20029;-49
2022/01/30 10:12:15;;;;;;;;;;;;;;;;;;5069776;28;20028;-47
2022/01/30 10:14:48;;;;;;;5.15;1.15;;;;;;;;;;5060652;28;19908;-47
2022/01/30 10:17:29;;;;;;;3.38;1.63;;;;;;;;;;5062393;28;20017;-47
2022/01/30 10:19:59;;;;;;;3.77;1.00;;;;;;;;;;5067351;28;20115;-47
2022/01/30 10:22:26;;;;;;;5.47;1.20;;;;;;;;;;5065465;28;20306;-54
2022/01/30 10:24:52;;;;;;;2.70;0.98;;;;;;;;;;5063414;28;20103;-53
2022/01/30 10:27:28;;;;;;;3.53;1.35;;;;;;;;;;5065075;28;20112;-52
2022/01/30 10:29:58;;;;;;;3.80;1.30;;;;;;;;;;5048225;28;20553;-49
2022/01/30 10:32:26;;;;;;;3.92;1.55;;;;;;;;;;5061280;28;20029;-55
2022/01/30 10:34:57;;;;;;;2.33;1.15;;;;;;;;;;5064435;28;20017;-49
2022/01/30 10:37:24;;;;;;;2.85;1.38;;;;;;;;;;5062568;28;20049;-56
2022/01/30 10:39:56;;;;;;;2.72;0.93;;;;;;;;;;5060114;28;20060;-49
2022/01/30 10:42:41;;;;;;;3.75;1.33;;;;;;;;;;5071318;28;20055;-47
2022/01/30 10:45:25;;;;;;;3.25;1.15;;;;;;;;;;5072467;28;20032;-48
2022/01/30 10:47:52;;;;;;;3.83;1.42;;;;;;;;;;5072276;28;20107;-47
2022/01/30 10:50:19;;;;;;;4.25;1.33;;;;;;;;;;5066824;28;20029;-47
2022/01/30 10:52:50;;;;;;;3.03;1.20;;;;;;;;;;5055068;28;20024;-48
2022/01/30 10:55:16;;;;;;;3.58;1.30;;;;;;;;;;5059525;28;20029;-47
2022/01/30 10:57:42;;;;;;;3.50;1.40;;;;;;;;;;5071397;28;20039;-47
2022/01/30 11:00:08;;;;;;;5.07;1.45;;;;;;;;;;5072360;28;20143;-51
2022/01/30 11:02:41;;;;;;;4.35;1.20;;;;;;;;;;5056116;28;20031;-47
2022/01/30 11:05:13;;;;;;;2.00;0.90;;;;;;;;;;5055924;28;20031;-47
2022/01/30 11:07:39;;;;;;;3.83;1.38;;;;;;;;;;5041728;28;20017;-46
2022/01/30 11:10:15;;;;;;;2.85;1.20;;;;;;;;;;5066454;28;20028;-49
2022/01/30 11:12:56;;;;;;;3.67;1.20;;;;;;;;;;5062562;28;20025;-46
2022/01/30 11:15:33;;;;;;;5.10;1.63;;;;;;;;;;5062937;28;20021;-47
2022/01/30 11:18:00;;;;;;;5.25;1.25;;;;;;;;;;5047268;28;20377;-45
2022/01/30 11:20:27;;;;;;;7.25;1.75;;;;;;;;;;5062396;28;20045;-54
2022/01/30 11:22:55;;;;;;;4.82;1.05;;;;;;;;;;5063573;28;20039;-49
2022/01/30 11:25:22;;;;;;;3.25;0.90;;;;;;;;;;5065491;28;20461;-49
2022/01/30 11:27:49;;;;;;;5.07;1.17;;;;;;;;;;5063622;28;20032;-52
2022/01/30 11:30:15;;;;;;;1.83;1.05;;;;;;;;;;5068135;28;20089;-54
2022/01/30 11:32:41;;;;;;;3.58;2.08;;;;;;;;;;5064667;28;20028;-52
2022/01/30 11:35:07;;;;;;;3.75;1.50;;;;;;;;;;5055653;28;20032;-47
2022/01/30 11:37:36;;;;;;;5.68;2.10;;;;;;;;;;5070012;28;20044;-65
2022/01/30 11:40:10;;;;;;;4.97;1.55;;;;;;;;;;5071079;28;20392;-56
2022/01/30 11:42:40;;;;;;;6.38;2.17;;;;;;;;;;5070431;28;20029;-46
2022/01/30 11:45:08;;;;;;;6.75;2.00;;;;;;;;;;5061124;28;20032;-45
2022/01/30 11:47:47;;;;;;;3.72;1.50;;;;;;;;;;5060202;28;20032;-46
2022/01/30 11:50:14;;;;;;;4.78;1.52;;;;;;;;;;5068969;28;20028;-46
2022/01/30 11:52:47;;;;;;;1.98;1.13;;;;;;;;;;5067662;28;20021;-46
2022/01/30 11:55:32;;;;;;;3.22;1.02;;;;;;;;;;5059108;28;20519;-45
2022/01/30 11:57:59;;;;;;;8.88;2.63;;;;;;;;;;5062916;28;20511;-45
2022/01/30 12:00:34;;;;;;;4.03;1.05;;;;;;;;;;5063120;28;20039;-56
2022/01/30 12:03:40;;;;;;;4.35;1.35;;;;;;;;;;5064650;28;20028;-45
2022/01/30 12:06:21;;;;;;;5.00;1.70;;;;;;;;;;4975275;28;20027;-50
2022/01/30 12:08:50;;;;;;;4.35;1.25;;;;;;;;;;4986220;28;20030;-51
2022/01/30 12:11:35;;;;;;;5.10;1.40;;;;;;;;;;4998333;28;20041;-47
2022/01/30 12:14:05;;;;;;;4.13;1.83;;;;;;;;;;4988035;28;20095;-45
2022/01/30 12:16:46;;;;;;;3.15;1.40;;;;;;;;;;5003112;28;20121;-48
2022/01/30 12:19:16;;;;;;;2.40;1.20;;;;;;;;;;4970576;28;20023;-44
2022/01/30 12:21:43;;;;;;;4.50;1.17;;;;;;;;;;4991016;28;20030;-46
2022/01/30 12:24:25;;;;;;;3.58;1.30;;;;;;;;;;5001473;28;20066;-44
2022/01/30 12:26:51;;;;;;;;;;;;;;;;;;4998754;28;20034;-47
2022/01/30 12:29:36;;;;;;;3.65;1.15;;;;;;;;;;4993156;28;20037;-46
2022/01/30 12:32:20;;;;;;;4.55;1.52;;;;;;;;;;5001106;28;20036;-48
2022/01/30 12:34:55;;;;;;;2.20;0.98;;;;;;;;;;4995437;28;20041;-49
2022/01/30 12:37:23;;;;;;;4.43;1.45;;;;;;;;;;5049426;28;20048;-46
2022/01/30 12:39:49;;;;;;;5.10;1.58;;;;;;;;;;5073560;28;20666;-45
2022/01/30 12:42:16;;;;;;;6.82;2.28;;;;;;;;;;5075117;28;20040;-47
2022/01/30 12:44:43;;;;;;;3.17;1.40;;;;;;;;;;5074033;28;20036;-45
2022/01/30 12:47:09;;;;;;;4.22;1.10;;;;;;;;;;5072055;28;20154;-45
2022/01/30 12:49:47;;;;;;;7.13;1.52;;;;;;;;;;5073723;28;20025;-45
2022/01/30 12:52:28;;;;;;;5.85;1.27;;;;;;;;;;5062422;28;20028;-48
2022/01/30 12:54:55;;;;;;;8.27;1.23;;;;;;;;;;5058782;28;20037;-45
2022/01/30 12:57:22;;;;;;;3.00;0.88;;;;;;;;;;5069365;28;20017;-45
2022/01/30 12:59:56;;;;;;;3.28;1.10;;;;;;;;;;5062734;28;20035;-45
2022/01/30 13:02:22;;;;;;;2.90;1.20;;;;;;;;;;5064828;28;20032;-48
2022/01/30 13:04:58;;;;;;;4.65;1.13;;;;;;;;;;5056443;28;20519;-46
2022/01/30 13:07:24;;;;;;;2.83;1.20;;;;;;;;;;5063197;28;20016;-45
2022/01/30 13:10:02;;;;;;;4.07;1.70;;;;;;;;;;5064482;28;20500;-45
2022/01/30 13:12:30;;;;;;;4.30;1.30;;;;;;;;;;5069296;28;20028;-47
2022/01/30 13:14:56;;;;;;;3.78;1.17;;;;;;;;;;5057317;28;20059;-44
2022/01/30 13:17:29;;;;;;;1.77;0.75;;;;;;;;;;5064855;28;20828;-47
2022/01/30 13:19:55;;;;;;;5.35;1.20;;;;;;;;;;5062573;28;20032;-47
2022/01/30 13:22:36;;;;;;;3.08;1.05;;;;;;;;;;5067786;28;20032;-45
2022/01/30 13:25:09;;;;;;;2.67;1.10;;;;;;;;;;5073725;28;20511;-47
2022/01/30 13:27:43;;;;;;;2.47;1.23;;;;;;;;;;5073450;28;20036;-46
2022/01/30 13:30:10;;;;;;;2.22;1.13;;;;;;;;;;5073746;28;20098;-47
2022/01/30 13:32:40;;;;;;;2.67;0.98;;;;;;;;;;5073229;28;20365;-48
2022/01/30 13:35:13;;;;;;;3.85;1.45;;;;;;;;;;5060925;28;20021;-45
2022/01/30 13:37:41;;;;;;;1.92;0.90;;;;;;;;;;5085876;28;20058;-46
2022/01/30 13:40:14;;;;;;;2.65;1.05;;;;;;;;;;5093915;28;20040;-47
2022/01/30 13:48:04;;;;;;;4.85;1.02;;;;;;;;;;5081754;28;20067;-47
2022/01/30 13:51:02;;;;;;;3.85;1.00;;;;;;;;;;5088793;28;20040;-54
2022/01/30 13:53:29;;;;;;;2.40;1.17;;;;;;;;;;5092680;28;20024;-46
2022/01/30 13:55:57;;;;;;;3.38;0.95;;;;;;;;;;5093091;28;20031;-46
2022/01/30 13:58:30;;;;;;;3.30;1.13;;;;;;;;;;5079683;28;20048;-45
2022/01/30 14:00:57;;;;;;;3.47;1.10;;;;;;;;;;5090639;28;20064;-50
2022/01/30 14:03:23;;;;;;;2.80;1.08;;;;;;;;;;5093123;28;20469;-46
2022/01/30 14:05:49;;;;;;;3.67;1.08;;;;;;;;;;5090551;28;20020;-45
2022/01/30 14:08:18;;;;;;;2.65;0.90;;;;;;;;;;5093143;28;20503;-46
2022/01/30 14:10:45;;;;;;;2.08;0.93;;;;;;;;;;5088993;28;20028;-46
2022/01/30 14:13:16;;;;;;;2.15;0.98;;;;;;;;;;5090067;28;20016;-47
2022/01/30 14:15:43;;;;;;;2.25;0.80;;;;;;;;;;5081904;28;20020;-47
2022/01/30 14:18:13;;;;;;;4.22;1.02;;;;;;;;;;5094143;28;20024;-45
2022/01/30 14:20:40;;;;;;;2.70;1.05;;;;;;;;;;5093229;28;20036;-46
2022/01/30 14:23:10;;;;;;;3.28;0.98;;;;;;;;;;5093111;28;20890;-53
2022/01/30 14:25:36;;;;;;;3.25;1.00;;;;;;;;;;5093053;28;20028;-46
2022/01/30 14:28:03;;;;;;;3.40;1.00;;;;;;;;;;5086913;28;20043;-46
2022/01/30 14:30:39;;;;;;;4.22;1.10;;;;;;;;;;5085162;28;20028;-46
2022/01/30 14:33:05;;;;;;;3.97;0.95;;;;;;;;;;5092737;28;20366;-46
2022/01/30 14:35:36;;;;;;;2.90;1.10;;;;;;;;;;5093262;28;20038;-48
2022/01/30 14:38:05;;;;;;;2.28;1.15;;;;;;;;;;5068438;28;20049;-46
2022/01/30 14:40:32;;;;;;;2.67;0.80;;;;;;;;;;5072935;28;20053;-52
2022/01/30 14:42:59;;;;;;;3.92;1.00;;;;;;;;;;5072304;28;20048;-45
2022/01/30 14:45:26;;;;;;;5.45;1.08;;;;;;;;;;5072888;28;20036;-46
2022/01/30 14:47:52;;;;;;;4.93;1.00;;;;;;;;;;5072089;28;20037;-46
2022/01/30 14:50:18;;;;;;;3.13;1.30;;;;;;;;;;5062052;28;20405;-46
2022/01/30 14:52:44;;;;;;;3.83;1.58;;;;;;;;;;5065285;28;20024;-47
2022/01/30 14:55:10;;;;;;;4.53;1.35;;;;;;;;;;5057443;28;20024;-46
2022/01/30 14:57:36;;;;;;;3.17;0.90;;;;;;;;;;5066088;28;20051;-45
2022/01/30 15:00:03;;;;;;;5.45;1.15;;;;;;;;;;5064485;28;20107;-46
2022/01/30 15:02:29;;;;;;;3.08;1.13;;;;;;;;;;5053147;28;20124;-47
2022/01/30 15:04:56;;;;;;;4.50;1.15;;;;;;;;;;5059545;28;20377;-46
2022/01/30 15:07:21;;;;;;;3.50;1.30;;;;;;;;;;5072468;28;20453;-46
2022/01/30 15:09:47;;;;;;;2.75;1.30;;;;;;;;;;5062410;28;20119;-47
2022/01/30 15:12:14;;;;;;;3.30;1.10;;;;;;;;;;5064630;28;20028;-46
2022/01/30 15:14:41;;;;;;;2.13;0.90;;;;;;;;;;5055139;28;20028;-46
2022/01/30 15:17:17;;;;;;;3.08;1.08;;;;;;;;;;5068243;28;20016;-45
2022/01/30 15:19:43;;;;;;;1.63;0.75;;;;;;;;;;5017624;28;20048;-46
2022/01/30 15:22:09;;;;;;;3.25;1.15;;;;;;;;;;5017875;28;20041;-46
2022/01/30 15:24:35;;;;;;;3.90;0.90;;;;;;;;;;5024736;28;20029;-54
2022/01/30 15:27:03;;;;;;;4.82;0.90;;;;;;;;;;5026382;28;20064;-46
2022/01/30 15:29:29;;;;;;;4.30;1.20;;;;;;;;;;5025555;28;20045;-51
2022/01/30 15:31:55;;;;;;;2.95;0.93;;;;;;;;;;5027826;28;20655;-48
2022/01/30 15:34:21;;;;;;;4.00;1.20;;;;;;;;;;5028816;28;20124;-48
2022/01/30 15:36:48;;;;;;;1.70;0.77;;;;;;;;;;5022093;28;20067;-50
2022/01/30 15:39:14;;;;;;;2.38;0.90;;;;;;;;;;5069065;28;20103;-49
2022/01/30 15:41:40;;;;;;;2.83;1.02;;;;;;;;;;5067936;28;20036;-54
2022/01/30 15:44:09;;;;;;;2.35;1.08;;;;;;;;;;5069113;28;20115;-48
2022/01/30 15:49:20;;;;;;;7.88;1.73;;;;;;;;;;5061032;28;20155;-54
2022/01/30 15:51:46;;;;;;;3.45;0.80;;;;;;;;;;5088866;28;20412;-52